createdAt,value
2022-10-02T00:00:54.941Z,99085.84
2022-10-02T00:05:14.309Z,99081.69
2022-10-02T00:09:25.480Z,99073.03
2022-10-02T00:13:41.064Z,99085.50
2022-10-02T00:17:47.438Z,99086.09
2022-10-02T00:22:04.863Z,99085.50
2022-10-02T00:26:24.036Z,99062.13
2022-10-02T00:30:28.857Z,99065.69
2022-10-02T00:34:38.572Z,99080.81
2022-10-02T00:38:57.402Z,99085.84
2022-10-02T00:43:27.635Z,99105.75
2022-10-02T00:47:43.850Z,99105.66
2022-10-02T00:52:18.734Z,99097.31
2022-10-02T00:56:35.587Z,99093.25
2022-10-02T01:00:41.432Z,99087.06
2022-10-02T01:04:43.686Z,99095.75
2022-10-02T01:08:46.260Z,99089.28
2022-10-02T01:12:50.039Z,99075.84
2022-10-02T01:16:52.172Z,99074.88
2022-10-02T01:21:00.614Z,99080.72
2022-10-02T01:25:06.820Z,99090.88
2022-10-02T01:29:09.596Z,99087.94
2022-10-02T01:33:13.567Z,99086.84
2022-10-02T01:37:15.837Z,99093.53
2022-10-02T01:41:18.116Z,99092.44
2022-10-02T01:45:29.386Z,99080.03
2022-10-02T01:50:02.886Z,99089.97
2022-10-02T01:54:26.965Z,99093.81
2022-10-02T01:58:50.186Z,99092.44
2022-10-02T02:03:11.774Z,99074.44
2022-10-02T02:07:36.120Z,99078.00
2022-10-02T02:11:47.380Z,99082.88
2022-10-02T02:16:06.050Z,99076.34
2022-10-02T02:20:31.121Z,99088.84
2022-10-02T02:24:33.313Z,99086.75
2022-10-02T02:28:40.540Z,99080.81
2022-10-02T02:33:01.084Z,99094.31
2022-10-02T02:37:11.556Z,99090.63
2022-10-02T02:41:19.607Z,99086.25
2022-10-02T02:45:25.336Z,99089.16
2022-10-02T02:49:31.021Z,99081.56
2022-10-02T02:53:45.170Z,99082.91
2022-10-02T02:58:02.391Z,99093.44
2022-10-02T03:02:04.867Z,99094.31
2022-10-02T03:06:31.943Z,99084.34
2022-10-02T03:10:50.132Z,99090.53
2022-10-02T03:15:07.052Z,99094.84
2022-10-02T03:19:15.319Z,99106.94
2022-10-02T03:23:25.912Z,99103.44
2022-10-02T03:27:51.594Z,99102.88
2022-10-02T03:31:55.322Z,99110.44
2022-10-02T03:35:57.754Z,99101.84
2022-10-02T03:40:01.799Z,99115.88
2022-10-02T03:44:03.867Z,99120.56
2022-10-02T03:48:05.943Z,99118.34
2022-10-02T03:52:13.790Z,99108.84
2022-10-02T03:56:37.240Z,99097.81
2022-10-02T04:00:46.999Z,99102.38
2022-10-02T04:05:00.213Z,99097.53
2022-10-02T04:09:12.255Z,99104.75
2022-10-02T04:13:27.299Z,99100.69
2022-10-02T04:17:58.205Z,99096.34
2022-10-02T04:22:10.944Z,99099.03
2022-10-02T04:26:29.531Z,99090.72
2022-10-02T04:30:32.186Z,99097.53
2022-10-02T04:34:34.327Z,99101.22
2022-10-02T04:38:45.677Z,99104.47
2022-10-02T04:43:09.215Z,99120.94
2022-10-02T04:47:40.546Z,99124.09
2022-10-02T04:51:55.478Z,99127.63
2022-10-02T04:56:11.157Z,99131.94
2022-10-02T05:00:21.984Z,99130.59
2022-10-02T05:04:30.020Z,99122.78
2022-10-02T05:08:59.479Z,99119.75
2022-10-02T05:13:31.939Z,99121.00
2022-10-02T05:17:52.500Z,99119.13
2022-10-02T05:21:54.561Z,99127.22
2022-10-02T05:26:21.338Z,99127.00
2022-10-02T05:30:24.598Z,99136.41
2022-10-02T05:34:55.979Z,99143.66
2022-10-02T05:39:10.414Z,99146.34
2022-10-02T05:43:28.593Z,99156.88
2022-10-02T05:47:41.490Z,99160.41
2022-10-02T05:51:59.712Z,99158.25
2022-10-02T05:56:12.600Z,99160.84
2022-10-02T06:00:44.292Z,99163.78
2022-10-02T06:04:57.708Z,99164.56
2022-10-02T06:09:20.324Z,99164.03
2022-10-02T06:13:30.075Z,99167.28
2022-10-02T06:17:40.973Z,99182.81
2022-10-02T06:21:57.199Z,99192.97
2022-10-02T06:26:04.863Z,99181.22
2022-10-02T06:30:11.326Z,99191.09
2022-10-02T06:34:14.682Z,99192.34
2022-10-02T06:38:35.638Z,99188.53
2022-10-02T06:43:01.990Z,99192.72
2022-10-02T06:47:50.760Z,99187.78
2022-10-02T06:52:03.743Z,99204.94
2022-10-02T06:56:41.116Z,99198.16
2022-10-02T07:00:53.602Z,99207.44
2022-10-02T07:05:26.682Z,99216.59
2022-10-02T07:09:28.925Z,99222.25
2022-10-02T07:13:35.558Z,99228.44
2022-10-02T07:18:21.875Z,99224.72
2022-10-02T07:22:50.136Z,99229.38
2022-10-02T07:27:21.029Z,99219.81
2022-10-02T07:31:46.147Z,99231.97
2022-10-02T07:36:03.790Z,99230.59
2022-10-02T07:40:21.489Z,99249.97
2022-10-02T07:44:41.894Z,99244.03
2022-10-02T07:48:59.133Z,99255.63
2022-10-02T07:53:18.065Z,99257.31
2022-10-02T07:57:34.310Z,99259.81
2022-10-02T08:02:07.521Z,99260.38
2022-10-02T08:06:23.714Z,99265.38
2022-10-02T08:10:33.150Z,99262.72
2022-10-02T08:14:42.132Z,99267.09
2022-10-02T08:19:08.876Z,99259.03
2022-10-02T08:23:37.787Z,99261.72
2022-10-02T08:27:59.144Z,99261.63
2022-10-02T08:32:02.030Z,99254.13
2022-10-02T08:36:08.022Z,99254.63
2022-10-02T08:40:48.123Z,99251.53
2022-10-02T08:45:12.322Z,99251.91
2022-10-02T08:49:33.765Z,99240.81
2022-10-02T09:00:33.730Z,99247.88
2022-10-02T09:04:58.675Z,99239.06
2022-10-02T09:14:55.590Z,99251.78
2022-10-02T09:19:04.181Z,99250.50
2022-10-02T09:23:43.415Z,99239.91
2022-10-02T09:28:10.643Z,99241.03
2022-10-02T09:32:27.980Z,99231.59
2022-10-02T09:36:30.235Z,99223.00
2022-10-02T09:40:50.807Z,99217.44
2022-10-02T09:45:32.490Z,99215.03
2022-10-02T09:49:42.683Z,99223.16
2022-10-02T09:54:15.725Z,99223.38
2022-10-02T09:58:37.705Z,99228.41
2022-10-02T10:03:25.652Z,99218.44
2022-10-02T10:07:49.007Z,99211.66
2022-10-02T10:11:54.156Z,99213.38
2022-10-02T10:16:29.804Z,99199.72
2022-10-02T10:20:59.326Z,99199.22
2022-10-02T10:25:22.816Z,99202.91
2022-10-02T10:30:02.605Z,99201.34
2022-10-02T10:34:27.526Z,99200.47
2022-10-02T10:38:33.027Z,99184.28
2022-10-02T10:43:16.803Z,99186.88
2022-10-02T10:47:45.921Z,99179.09
2022-10-02T10:52:07.664Z,99179.94
2022-10-02T10:56:28.698Z,99171.69
2022-10-02T11:00:54.671Z,99165.84
2022-10-02T11:05:15.630Z,99165.66
2022-10-02T11:09:26.802Z,99156.00
2022-10-02T11:14:15.884Z,99151.84
2022-10-02T11:19:03.147Z,99145.09
2022-10-02T11:23:23.134Z,99143.28
2022-10-02T11:27:57.966Z,99135.72
2022-10-02T11:32:21.164Z,99148.44
2022-10-02T11:37:04.063Z,99141.31
2022-10-02T11:41:49.253Z,99140.81
2022-10-02T11:46:27.981Z,99131.66
2022-10-02T11:50:42.704Z,99129.81
2022-10-02T11:54:56.459Z,99126.84
2022-10-02T11:58:58.949Z,99130.09
2022-10-02T12:03:17.938Z,99123.25
2022-10-02T12:08:03.916Z,99107.16
2022-10-02T12:18:00.591Z,99092.28
2022-10-02T12:22:36.143Z,99107.13
2022-10-02T12:26:59.551Z,99101.16
2022-10-02T12:31:32.568Z,99095.81
2022-10-02T12:36:13.887Z,99087.41
2022-10-02T12:40:25.060Z,99081.34
2022-10-02T12:44:56.532Z,99067.78
2022-10-02T12:49:20.443Z,99069.66
2022-10-02T12:53:22.616Z,99064.88
2022-10-02T12:57:58.840Z,99056.13
2022-10-02T13:03:00.716Z,99059.25
2022-10-02T13:07:26.354Z,99047.38
2022-10-02T13:12:05.775Z,99061.88
2022-10-02T13:16:35.803Z,99045.75
2022-10-02T13:20:44.604Z,99033.88
2022-10-02T13:25:19.157Z,99034.78
2022-10-02T13:29:55.387Z,99027.09
2022-10-02T13:34:26.160Z,99036.03
2022-10-02T13:38:37.026Z,99034.16
2022-10-02T13:43:20.698Z,99023.97
2022-10-02T13:47:44.784Z,99024.50
2022-10-02T13:52:01.661Z,99020.66
2022-10-02T13:56:32.458Z,99017.78
2022-10-02T14:00:40.323Z,99020.91
2022-10-02T14:05:20.544Z,99001.81
2022-10-02T14:09:52.060Z,98991.56
2022-10-02T14:14:06.263Z,98999.50
2022-10-02T14:18:11.684Z,98981.91
2022-10-02T14:22:39.849Z,98972.22
2022-10-02T14:27:10.807Z,98968.22
2022-10-02T14:31:19.846Z,98961.63
2022-10-02T14:35:52.385Z,98952.75
2022-10-02T14:39:58.781Z,98944.06
2022-10-02T14:44:38.945Z,98940.75
2022-10-02T14:49:18.116Z,98941.16
2022-10-02T14:53:35.343Z,98928.84
2022-10-02T14:57:47.726Z,98924.47
2022-10-02T15:01:57.954Z,98924.88
2022-10-02T15:06:02.982Z,98910.78
2022-10-02T15:10:16.358Z,98916.25
2022-10-02T15:14:28.365Z,98904.66
2022-10-02T15:19:11.484Z,98902.31
2022-10-02T15:23:24.780Z,98892.69
2022-10-02T15:27:41.038Z,98894.03
2022-10-02T15:32:29.365Z,98897.72
2022-10-02T15:37:04.588Z,98901.47
2022-10-02T15:41:12.863Z,98891.66
2022-10-02T15:45:28.423Z,98898.16
2022-10-02T15:50:01.879Z,98897.75
2022-10-02T15:54:39.461Z,98899.03
2022-10-02T15:59:12.043Z,98900.53
2022-10-02T16:03:27.572Z,98895.28
2022-10-02T16:07:44.949Z,98890.28
2022-10-02T16:12:08.407Z,98898.63
2022-10-02T16:16:46.838Z,98898.41
2022-10-02T16:21:10.055Z,98900.47
2022-10-02T16:25:24.254Z,98895.28
2022-10-02T16:30:05.518Z,98896.06
2022-10-02T16:34:39.028Z,98906.22
2022-10-02T16:38:51.186Z,98906.63
2022-10-02T16:43:31.550Z,98913.81
2022-10-02T16:47:54.268Z,98897.81
2022-10-02T16:52:29.417Z,98905.63
2022-10-02T16:56:42.362Z,98906.88
2022-10-02T17:01:22.433Z,98907.78
2022-10-02T17:05:34.959Z,98898.72
2022-10-02T17:09:45.292Z,98905.41
2022-10-02T17:14:02.745Z,98903.78
2022-10-02T17:18:20.390Z,98901.84
2022-10-02T17:22:46.280Z,98904.53
2022-10-02T17:27:00.845Z,98897.66
2022-10-02T17:31:23.460Z,98897.06
2022-10-02T17:36:03.372Z,98906.91
2022-10-02T17:40:20.253Z,98905.00
2022-10-02T17:44:41.873Z,98903.41
2022-10-02T17:49:02.683Z,98899.63
2022-10-02T17:53:37.649Z,98904.22
2022-10-02T17:57:52.323Z,98899.44
2022-10-02T18:02:22.428Z,98896.25
2022-10-02T18:06:50.843Z,98891.97
2022-10-02T18:11:11.738Z,98896.72
2022-10-02T18:15:32.273Z,98889.97
2022-10-02T18:19:58.519Z,98887.03
2022-10-02T18:24:17.580Z,98884.84
2022-10-02T18:28:41.501Z,98874.81
2022-10-02T18:33:10.613Z,98876.41
2022-10-02T18:37:35.881Z,98867.84
2022-10-02T18:42:17.028Z,98868.13
2022-10-02T18:46:28.703Z,98866.38
2022-10-02T18:50:56.968Z,98865.69
2022-10-02T18:55:17.728Z,98867.28
2022-10-02T18:59:33.044Z,98866.31
2022-10-02T19:04:03.111Z,98870.31
2022-10-02T19:08:05.311Z,98864.09
2022-10-02T19:12:25.731Z,98869.50
2022-10-02T19:16:30.686Z,98873.63
2022-10-02T19:21:12.830Z,98872.34
2022-10-02T19:25:20.434Z,98881.56
2022-10-02T19:29:38.297Z,98874.56
2022-10-02T19:33:52.754Z,98881.09
2022-10-02T19:38:08.902Z,98884.91
2022-10-02T19:42:18.188Z,98892.47
2022-10-02T19:46:32.447Z,98895.97
2022-10-02T19:50:37.641Z,98890.41
2022-10-02T19:54:40.925Z,98890.03
2022-10-02T19:58:51.357Z,98889.41
2022-10-02T20:02:57.068Z,98887.13
2022-10-02T20:07:00.315Z,98881.38
2022-10-02T20:11:11.366Z,98867.28
2022-10-02T20:15:42.558Z,98881.00
2022-10-02T20:19:51.828Z,98867.53
2022-10-02T20:23:59.796Z,98879.59
2022-10-02T20:28:25.441Z,98877.50
2022-10-02T20:32:33.489Z,98869.38
2022-10-02T20:36:45.032Z,98878.25
2022-10-02T20:40:53.393Z,98878.38
2022-10-02T20:44:55.769Z,98882.78
2022-10-02T20:49:22.000Z,98879.28
2022-10-02T20:53:45.493Z,98874.50
2022-10-02T20:58:10.135Z,98887.09
2022-10-02T21:02:22.910Z,98890.25
2022-10-02T21:06:46.896Z,98877.66
2022-10-02T21:10:59.923Z,98869.09
2022-10-02T21:15:46.582Z,98863.63
2022-10-02T21:25:20.919Z,98864.53
2022-10-02T21:29:39.275Z,98856.47
2022-10-02T21:33:51.183Z,98840.16
2022-10-02T21:38:33.140Z,98840.94
2022-10-02T21:42:49.638Z,98849.66
2022-10-02T21:47:12.176Z,98841.13
2022-10-02T21:51:50.051Z,98833.31
2022-10-02T21:56:13.535Z,98834.13
2022-10-02T22:00:23.504Z,98830.44
2022-10-02T22:04:43.494Z,98821.88
2022-10-02T22:09:14.505Z,98819.81
2022-10-02T22:13:31.168Z,98823.69
2022-10-02T22:18:11.714Z,98822.50
2022-10-02T22:23:10.660Z,98824.75
2022-10-02T22:27:38.530Z,98823.81
2022-10-02T22:31:46.809Z,98825.00
2022-10-02T22:36:07.337Z,98818.84
2022-10-02T22:40:16.980Z,98814.38
2022-10-02T22:44:26.892Z,98825.75
2022-10-02T22:48:44.038Z,98814.75
2022-10-02T22:53:17.522Z,98826.44
2022-10-02T22:57:34.163Z,98828.22
2022-10-02T23:01:44.278Z,98821.44
2022-10-02T23:06:12.727Z,98815.84
2022-10-02T23:10:25.825Z,98803.41
2022-10-02T23:14:41.750Z,98806.47
2022-10-02T23:18:59.133Z,98809.25
2022-10-02T23:23:17.936Z,98807.31
2022-10-02T23:27:33.432Z,98806.88
2022-10-02T23:31:42.873Z,98805.19
2022-10-02T23:36:19.007Z,98811.25
2022-10-02T23:41:09.713Z,98803.88
2022-10-02T23:45:20.298Z,98807.03
2022-10-02T23:49:26.899Z,98807.84
2022-10-02T23:53:53.428Z,98804.84
2022-10-02T23:58:04.762Z,98796.13
